Time;durP1;ratioP1;P1;durP2;ratioP2;P2;SDS_P1;SDS_P2;PMS_P1;PMS_P2;Temp;Humidity;BMP_temperature;BMP_pressure;BME280_temperature;BME280_humidity;BME280_pressure;Samples;Min_cycle;Max_cycle;Signal;HPM_P1;HPM_P2
2021/03/18 00:01:27;;;;;;;0.90;0.70;;;;;;;1.03;100.00;99878.26;3766313;77;387753;-80
2021/03/18 00:06:49;;;;;;;0.80;0.60;;;;;;;1.11;100.00;99868.80;3765582;78;383581;-81
2021/03/18 00:12:11;;;;;;;1.03;0.70;;;;;;;0.90;100.00;99861.61;3765125;78;389859;-80
2021/03/18 00:17:33;;;;;;;0.90;0.70;;;;;;;0.85;100.00;99858.50;3765601;78;383581;-80
2021/03/18 00:22:54;;;;;;;0.90;0.60;;;;;;;1.02;100.00;99857.16;3765753;77;385664;-81
2021/03/18 00:28:16;;;;;;;2.63;2.43;;;;;;;0.90;100.00;99858.33;3764930;77;391934;-80
2021/03/18 00:33:38;;;;;;;0.90;0.60;;;;;;;0.77;100.00;99867.16;3765495;76;383793;-80
2021/03/18 00:39:01;;;;;;;5.17;1.00;;;;;;;0.75;100.00;99866.13;3764977;77;388829;-80
2021/03/18 00:44:24;;;;;;;0.80;0.60;;;;;;;0.88;100.00;99870.06;3765931;78;383833;-80
2021/03/18 00:49:46;;;;;;;1.50;0.87;;;;;;;0.90;100.00;99861.61;3765301;77;392114;-80
2021/03/18 00:55:08;;;;;;;1.00;0.60;;;;;;;0.97;100.00;99861.36;3765567;76;388007;-80
2021/03/18 01:00:35;;;;;;;1.30;1.20;;;;;;;0.99;100.00;99853.72;3896216;75;387806;-80
2021/03/18 01:06:02;;;;;;;1.70;1.37;;;;;;;1.00;100.00;99849.12;3766147;77;383608;-80
2021/03/18 01:11:26;;;;;;;1.00;0.70;;;;;;;0.91;100.00;99847.74;3895534;74;385704;-81
2021/03/18 01:16:50;;;;;;;1.20;0.97;;;;;;;0.94;100.00;99841.70;3896037;74;383538;-81
2021/03/18 01:22:11;;;;;;;0.90;0.60;;;;;;;1.13;100.00;99838.67;3766843;76;383608;-81
2021/03/18 01:27:32;;;;;;;3.10;1.57;;;;;;;1.25;100.00;99839.62;3894361;75;391912;-81
2021/03/18 01:32:54;;;;;;;2.30;0.73;;;;;;;1.11;100.00;99849.02;3765727;77;391856;-80
2021/03/18 01:38:15;;;;;;;1.63;0.70;;;;;;;1.17;100.00;99845.05;3896441;74;383574;-81
2021/03/18 01:43:38;;;;;;;4.03;1.00;;;;;;;1.07;100.00;99846.73;3895725;74;393978;-81
2021/03/18 01:48:59;;;;;;;0.80;0.50;;;;;;;1.09;100.00;99831.73;3896665;75;383819;-81
2021/03/18 01:54:22;;;;;;;0.90;0.60;;;;;;;1.04;100.00;99837.33;3896400;75;388126;-81
2021/03/18 01:59:43;;;;;;;21.07;1.37;;;;;;;1.06;100.00;99838.35;3765865;77;385704;-81
2021/03/18 02:05:07;;;;;;;1.03;0.90;;;;;;;0.98;100.00;99837.22;3896529;74;383570;-81
2021/03/18 02:10:33;;;;;;;2.60;1.17;;;;;;;0.79;100.00;99831.34;3895888;75;383574;-81
2021/03/18 02:15:58;;;;;;;0.80;0.50;;;;;;;0.66;100.00;99842.30;3896580;74;383830;-81
2021/03/18 02:21:38;;;;;;;4.50;1.10;;;;;;;0.61;100.00;99849.77;3896358;75;383767;-81
2021/03/18 02:27:28;;;;;;;1.10;1.00;;;;;;;0.70;100.00;99845.96;3766132;77;388194;-81
2021/03/18 02:33:08;;;;;;;1.10;1.00;;;;;;;0.65;100.00;99842.06;3896080;74;383585;-81
2021/03/18 02:38:38;;;;;;;1.03;0.80;;;;;;;0.76;100.00;99838.48;3896182;74;387979;-81
2021/03/18 02:44:20;;;;;;;0.90;0.60;;;;;;;0.68;100.00;99848.20;3896710;74;383562;-81
2021/03/18 02:49:47;;;;;;;1.13;0.83;;;;;;;0.76;100.00;99847.97;3896604;74;383586;-81
2021/03/18 02:55:09;;;;;;;0.80;0.50;;;;;;;0.94;100.00;99844.41;3887989;74;383799;-81
2021/03/18 03:00:31;;;;;;;1.07;0.87;;;;;;;0.88;100.00;99844.33;3884124;74;389774;-81
2021/03/18 03:05:57;;;;;;;1.00;0.90;;;;;;;0.96;100.00;99848.14;3884223;74;383792;-81
2021/03/18 03:11:23;;;;;;;1.20;0.90;;;;;;;1.03;100.00;99843.86;3883784;75;391947;-81
2021/03/18 03:16:46;;;;;;;0.90;0.70;;;;;;;1.08;100.00;99848.32;3884200;74;387788;-81
2021/03/18 03:22:08;;;;;;;0.90;0.70;;;;;;;1.09;100.00;99845.28;3775150;77;383549;-81
2021/03/18 03:27:31;;;;;;;1.00;0.87;;;;;;;1.08;100.00;99855.09;3743273;78;385941;-81
2021/03/18 03:32:52;;;;;;;0.80;0.50;;;;;;;0.93;100.00;99848.23;3743451;77;383577;-81
2021/03/18 03:38:13;;;;;;;0.90;0.50;;;;;;;1.18;100.00;99847.44;3743408;78;383569;-81
2021/03/18 03:43:36;;;;;;;2.03;1.60;;;;;;;1.04;100.00;99847.35;3742645;78;394017;-81
2021/03/18 03:48:57;;;;;;;0.90;0.70;;;;;;;0.92;100.00;99845.27;3743227;78;383538;-81
2021/03/18 03:54:21;;;;;;;1.67;0.93;;;;;;;0.96;100.00;99846.25;3750666;77;390049;-81
2021/03/18 03:59:45;;;;;;;2.60;2.47;;;;;;;0.99;100.00;99841.53;3759629;77;387757;-81
2021/03/18 04:05:08;;;;;;;2.00;1.67;;;;;;;1.03;100.00;99838.44;3908219;75;389898;-81
2021/03/18 04:10:31;;;;;;;0.80;0.50;;;;;;;0.93;100.00;99846.06;3909301;74;383806;-80
2021/03/18 04:15:54;;;;;;;0.90;0.50;;;;;;;0.92;100.00;99841.21;3909201;74;387733;-81
2021/03/18 04:21:24;;;;;;;3.37;2.00;;;;;;;0.69;100.00;99836.23;3908033;74;396180;-81
2021/03/18 04:26:47;;;;;;;0.80;0.50;;;;;;;0.74;100.00;99832.58;3793046;75;383802;-81
2021/03/18 04:32:11;;;;;;;2.23;1.47;;;;;;;0.78;100.00;99832.98;3905797;75;389813;-81
2021/03/18 04:37:37;;;;;;;2.20;0.60;;;;;;;0.68;100.00;99831.96;3909058;74;389821;-81
2021/03/18 04:43:00;;;;;;;1.43;1.33;;;;;;;0.65;100.00;99835.86;3790891;76;394987;-81
2021/03/18 04:48:23;;;;;;;9.20;2.43;;;;;;;0.60;100.00;99838.16;3908607;74;396326;-81
2021/03/18 04:53:45;;;;;;;1.97;0.87;;;;;;;0.55;100.00;99826.68;3889327;74;389872;-81
2021/03/18 04:59:09;;;;;;;1.20;0.80;;;;;;;0.48;100.00;99825.78;3821757;75;394033;-81
2021/03/18 05:04:33;;;;;;;0.80;0.60;;;;;;;0.51;100.00;99828.41;3822485;76;383548;-81
2021/03/18 05:09:55;;;;;;;0.90;0.70;;;;;;;0.42;100.00;99827.05;3822819;77;383792;-81
2021/03/18 05:15:17;;;;;;;1.40;1.30;;;;;;;0.29;100.00;99829.30;3821364;75;394325;-81
2021/03/18 05:20:40;;;;;;;2.63;2.03;;;;;;;0.27;100.00;99830.73;3822127;75;383868;-81
2021/03/18 05:26:02;;;;;;;4.93;1.23;;;;;;;-0.02;100.00;99825.08;3822583;76;385625;-81
2021/03/18 05:31:23;;;;;;;4.67;0.80;;;;;;;0.07;100.00;99824.56;3821953;76;393980;-81
2021/03/18 05:36:45;;;;;;;1.07;0.87;;;;;;;-0.04;100.00;99831.91;3822748;75;383678;-81
2021/03/18 05:42:07;;;;;;;2.47;1.43;;;;;;;0.11;100.00;99831.73;3822232;75;385671;-81
2021/03/18 05:47:30;;;;;;;0.90;0.70;;;;;;;0.09;100.00;99826.37;3822863;77;383837;-81
2021/03/18 05:52:52;;;;;;;0.90;0.60;;;;;;;0.22;100.00;99828.97;3823056;75;383551;-82
2021/03/18 05:58:15;;;;;;;1.67;1.23;;;;;;;0.28;100.00;99826.92;3821184;75;396141;-82
2021/03/18 06:03:37;;;;;;;1.13;0.97;;;;;;;0.49;100.00;99826.03;3821922;75;392962;-81
2021/03/18 06:08:58;;;;;;;1.67;0.87;;;;;;;0.63;100.00;99825.90;3821859;76;394007;-82
2021/03/18 06:14:20;;;;;;;1.23;0.90;;;;;;;0.59;100.00;99828.44;3822142;77;390091;-82
2021/03/18 06:19:43;;;;;;;1.10;0.80;;;;;;;0.79;100.00;99831.34;3822004;76;383548;-82
2021/03/18 06:25:07;;;;;;;32.87;2.80;;;;;;;0.79;100.00;99829.17;3823024;75;383608;-82
2021/03/18 06:30:30;;;;;;;1.13;1.00;;;;;;;0.76;100.00;99825.77;3821470;76;392948;-82
2021/03/18 06:35:52;;;;;;;0.90;0.70;;;;;;;1.07;100.00;99823.13;3822577;75;387758;-82
2021/03/18 06:41:13;;;;;;;0.90;0.60;;;;;;;1.07;100.00;99828.55;3822470;75;383622;-81
2021/03/18 06:46:38;;;;;;;1.77;1.47;;;;;;;1.17;100.00;99818.74;3821974;75;391890;-82
2021/03/18 06:52:08;;;;;;;2.20;1.23;;;;;;;1.26;100.00;99822.78;3820779;75;396095;-82
2021/03/18 06:57:29;;;;;;;1.63;0.90;;;;;;;1.26;100.00;99833.63;3877477;74;394199;-82
2021/03/18 07:02:50;;;;;;;0.90;0.70;;;;;;;1.42;100.00;99837.44;3896676;74;383538;-82
2021/03/18 07:08:32;;;;;;;1.10;0.90;;;;;;;1.47;100.00;99840.00;3895992;74;391892;-81
2021/03/18 07:13:53;;;;;;;1.07;0.97;;;;;;;1.42;100.00;99836.08;3896280;74;394993;-80
2021/03/18 07:19:23;;;;;;;2.90;1.17;;;;;;;1.37;100.00;99828.13;3895287;74;396310;-83
2021/03/18 07:24:46;;;;;;;1.00;0.90;;;;;;;1.37;100.00;99823.52;3893976;75;395092;-81
2021/03/18 07:30:10;;;;;;;1.30;0.80;;;;;;;1.35;100.00;99823.03;3896148;74;394241;-81
2021/03/18 07:35:32;;;;;;;0.80;0.60;;;;;;;1.57;100.00;99820.90;3896825;74;383649;-81
2021/03/18 07:40:53;;;;;;;0.90;0.60;;;;;;;1.84;100.00;99821.09;3766357;77;383589;-80
2021/03/18 07:46:21;;;;;;;2.30;2.10;;;;;;;1.94;100.00;99828.88;3895017;74;396294;-81
2021/03/18 07:51:44;;;;;;;1.60;0.87;;;;;;;2.06;100.00;99817.55;3766504;77;383585;-81
2021/03/18 07:57:08;;;;;;;1.50;1.40;;;;;;;2.35;100.00;99817.59;3889829;74;396097;-80
2021/03/18 08:02:40;;;;;;;;;;;;;;;;;;;;;
2021/03/18 08:07:53;;;;;;;1.20;1.10;;;;;;;2.83;100.00;99814.62;3739032;78;396159;-81
2021/03/18 08:13:17;;;;;;;1.03;0.93;;;;;;;3.18;100.00;99817.31;3742023;77;391865;-81
2021/03/18 08:18:40;;;;;;;1.57;0.80;;;;;;;3.44;100.00;99801.56;3742855;77;389828;-80
2021/03/18 08:24:04;;;;;;;3.17;1.03;;;;;;;3.59;100.00;99788.14;3742323;77;389859;-80
2021/03/18 08:29:30;;;;;;;6.47;2.97;;;;;;;3.52;100.00;99789.22;3741985;78;394049;-80
2021/03/18 08:34:59;;;;;;;1.20;1.10;;;;;;;3.54;100.00;99787.55;3740160;78;391912;-80
2021/03/18 08:40:24;;;;;;;1.17;1.07;;;;;;;3.64;100.00;99791.17;3743466;77;391959;-81
2021/03/18 08:45:45;;;;;;;2.27;1.20;;;;;;;4.10;100.00;99784.78;3742169;78;396118;-81
2021/03/18 08:51:07;;;;;;;3.23;1.43;;;;;;;4.66;96.98;99776.48;3742282;77;396491;-83
2021/03/18 08:56:31;;;;;;;1.23;1.13;;;;;;;5.32;92.87;99783.09;3747387;77;392944;-81
2021/03/18 09:02:04;;;;;;;1.53;1.37;;;;;;;5.52;87.18;99789.13;3907686;74;396109;-81
2021/03/18 09:07:30;;;;;;;3.63;3.30;;;;;;;5.65;87.49;99792.00;3908247;74;394044;-81
2021/03/18 09:13:05;;;;;;;1.90;1.03;;;;;;;5.77;82.17;99786.52;3790915;76;393992;-81
2021/03/18 09:18:33;;;;;;;3.13;1.80;;;;;;;6.19;81.89;99779.95;3908017;74;396058;-81
2021/03/18 09:23:54;;;;;;;4.70;2.93;;;;;;;5.95;80.86;99779.58;3790666;76;396110;-81
2021/03/18 09:29:17;;;;;;;7.27;2.40;;;;;;;5.76;83.20;99774.00;3908411;74;396057;-81
2021/03/18 09:34:42;;;;;;;2.20;1.57;;;;;;;5.70;81.84;99772.65;3790768;76;396120;-81
2021/03/18 09:40:06;;;;;;;1.00;0.90;;;;;;;5.79;82.07;99771.14;3909984;72;393990;-81
2021/03/18 09:45:28;;;;;;;2.47;2.27;;;;;;;6.75;80.85;99771.14;3790619;76;397129;-81
2021/03/18 09:50:50;;;;;;;1.73;1.63;;;;;;;7.41;66.68;99768.42;3908704;74;394917;-81
2021/03/18 09:56:14;;;;;;;3.10;1.43;;;;;;;7.88;63.71;99760.90;3783741;76;397003;-81
2021/03/18 10:01:36;;;;;;;1.43;1.33;;;;;;;7.78;59.63;99757.98;3762256;78;391874;-81
2021/03/18 10:06:58;;;;;;;1.23;1.13;;;;;;;6.46;61.79;99760.73;3714954;79;391900;-81
2021/03/18 10:12:22;;;;;;;2.20;2.00;;;;;;;7.11;62.78;99757.27;3765461;77;391902;-82
2021/03/18 10:17:46;;;;;;;2.00;1.20;;;;;;;7.41;58.88;99740.48;3764878;78;396018;-82
2021/03/18 10:23:10;;;;;;;2.13;1.40;;;;;;;7.41;60.75;99729.54;3765931;76;393008;-82
2021/03/18 10:28:32;;;;;;;2.43;1.20;;;;;;;8.34;61.03;99722.75;3765025;77;394928;-81
2021/03/18 10:33:54;;;;;;;2.00;1.37;;;;;;;9.54;56.78;99726.07;3764934;78;394018;-82
2021/03/18 10:39:15;;;;;;;2.43;1.87;;;;;;;9.38;56.75;99718.44;3765218;77;397001;-82
2021/03/18 10:44:46;;;;;;;1.57;1.03;;;;;;;8.82;57.09;99712.27;3765313;78;387938;-82
2021/03/18 10:50:08;;;;;;;1.97;1.87;;;;;;;10.39;53.44;99698.16;3764626;77;395093;-82
2021/03/18 10:55:33;;;;;;;3.00;1.63;;;;;;;8.80;54.19;99700.27;3790477;76;397086;-81
2021/03/18 11:01:06;;;;;;;1.67;1.43;;;;;;;7.53;59.51;99701.98;3888103;74;392124;-82
2021/03/18 11:06:29;;;;;;;3.07;2.63;;;;;;;7.06;68.59;99702.63;3773268;77;397150;-82
2021/03/18 11:12:00;;;;;;;2.53;2.33;;;;;;;6.82;69.97;99691.43;3743457;76;397002;-82
2021/03/18 11:17:28;;;;;;;3.60;1.53;;;;;;;6.95;68.42;99689.31;3742280;78;395026;-82
2021/03/18 11:22:52;;;;;;;8.83;2.17;;;;;;;7.53;61.53;99676.56;3742218;78;397378;-82
2021/03/18 11:28:16;;;;;;;2.63;2.07;;;;;;;7.76;64.92;99669.91;3742041;78;391975;-82
2021/03/18 11:33:38;;;;;;;1.20;1.07;;;;;;;7.86;58.88;99660.30;3742670;78;388719;-82
2021/03/18 11:38:59;;;;;;;2.67;1.70;;;;;;;8.17;61.98;99655.32;3741703;77;397343;-80
2021/03/18 11:44:21;;;;;;;2.00;1.80;;;;;;;10.53;53.81;99648.15;3727552;77;394967;-81
2021/03/18 11:49:44;;;;;;;2.90;1.37;;;;;;;11.59;48.70;99641.83;3742116;78;393963;-80
2021/03/18 11:55:05;;;;;;;2.23;1.30;;;;;;;9.37;48.44;99632.50;3742494;78;387823;-80
2021/03/18 12:00:29;;;;;;;2.37;1.30;;;;;;;9.48;48.97;99637.52;3756323;77;391874;-80
2021/03/18 12:05:51;;;;;;;1.50;1.40;;;;;;;9.91;50.35;99627.09;3754620;78;393332;-80
2021/03/18 12:11:13;;;;;;;1.20;1.10;;;;;;;9.50;52.15;99613.22;3755053;77;392907;-80
2021/03/18 12:16:35;;;;;;;2.90;1.10;;;;;;;8.23;57.35;99604.53;3755083;77;386730;-79
2021/03/18 12:21:56;;;;;;;2.00;1.23;;;;;;;7.54;59.93;99602.86;3755034;78;386756;-80
2021/03/18 12:27:18;;;;;;;2.17;1.97;;;;;;;7.56;61.75;99596.42;3754618;77;388727;-80
2021/03/18 12:32:40;;;;;;;1.53;1.20;;;;;;;8.35;57.27;99585.09;3754540;78;393203;-80
2021/03/18 12:38:01;;;;;;;1.57;1.47;;;;;;;8.49;57.09;99586.08;3754993;78;386723;-80
2021/03/18 12:43:24;;;;;;;1.70;1.60;;;;;;;9.87;50.48;99572.11;3755013;78;388666;-80
2021/03/18 12:48:46;;;;;;;1.40;1.03;;;;;;;11.16;43.74;99556.14;3754595;78;395184;-80
2021/03/18 12:54:07;;;;;;;3.30;1.60;;;;;;;12.63;41.74;99552.00;3754594;78;394932;-80
2021/03/18 12:59:29;;;;;;;3.50;1.50;;;;;;;13.64;39.24;99543.87;3744821;77;393916;-80
2021/03/18 13:04:52;;;;;;;1.53;1.30;;;;;;;12.28;40.79;99534.80;3887321;75;394887;-80
2021/03/18 13:10:15;;;;;;;1.33;1.17;;;;;;;11.06;45.79;99528.60;3744616;77;397014;-80
2021/03/18 13:15:36;;;;;;;1.00;0.83;;;;;;;9.80;51.04;99528.11;3754021;78;390821;-80
2021/03/18 13:20:59;;;;;;;1.77;1.10;;;;;;;9.06;57.18;99530.66;3753325;77;397086;-81
2021/03/18 13:26:21;;;;;;;3.00;1.63;;;;;;;8.95;62.17;99520.95;3753361;78;396440;-81
2021/03/18 13:31:43;;;;;;;2.13;1.77;;;;;;;9.70;58.84;99512.91;3753442;78;392836;-80
2021/03/18 13:37:04;;;;;;;1.63;1.40;;;;;;;9.21;59.29;99509.80;3753279;78;397317;-81
2021/03/18 13:42:29;;;;;;;1.80;0.97;;;;;;;8.83;58.37;99503.39;3733062;78;392875;-80
2021/03/18 13:47:50;;;;;;;2.83;1.57;;;;;;;8.27;58.66;99503.38;3753825;78;392889;-81
2021/03/18 13:53:11;;;;;;;1.77;1.27;;;;;;;9.49;53.88;99489.44;3753694;77;395392;-81
2021/03/18 13:58:32;;;;;;;2.70;1.17;;;;;;;11.20;47.94;99468.23;3754757;77;394300;-81
2021/03/18 14:03:53;;;;;;;2.40;2.00;;;;;;;10.76;46.82;99464.87;3734642;77;397042;-81
2021/03/18 14:09:14;;;;;;;1.23;1.13;;;;;;;10.30;47.95;99457.68;3759689;76;392838;-80
2021/03/18 14:14:36;;;;;;;1.20;1.10;;;;;;;10.50;47.73;99452.23;3759671;78;392867;-81
2021/03/18 14:19:57;;;;;;;1.23;1.13;;;;;;;11.62;44.20;99449.53;3768488;76;389846;-80
2021/03/18 14:25:20;;;;;;;1.33;1.23;;;;;;;12.28;42.14;99430.75;3759787;76;392883;-80
2021/03/18 14:30:44;;;;;;;1.00;0.90;;;;;;;12.78;39.95;99423.16;3726584;76;383909;-80
2021/03/18 14:36:06;;;;;;;6.60;2.97;;;;;;;12.89;39.85;99416.98;3737836;78;398050;-80
2021/03/18 14:41:28;;;;;;;1.57;0.97;;;;;;;11.67;42.61;99416.81;3738081;77;391047;-77
2021/03/18 14:46:50;;;;;;;3.30;1.70;;;;;;;12.48;41.46;99402.86;3737462;76;397051;-77
2021/03/18 14:52:11;;;;;;;2.17;1.70;;;;;;;13.59;37.81;99406.67;3737636;77;396045;-77
2021/03/18 14:57:33;;;;;;;2.07;1.57;;;;;;;11.47;45.97;99403.28;3737504;77;397017;-78
2021/03/18 15:02:55;;;;;;;2.93;2.10;;;;;;;10.55;48.16;99397.41;3763163;76;396006;-77
2021/03/18 15:08:17;;;;;;;1.53;1.43;;;;;;;9.70;51.79;99400.27;3748470;77;392995;-76
2021/03/18 15:13:38;;;;;;;4.37;1.90;;;;;;;10.70;51.60;99388.80;3894877;74;397078;-79
2021/03/18 15:19:00;;;;;;;2.30;1.53;;;;;;;11.38;48.70;99379.48;3894828;75;397264;-79
2021/03/18 15:24:21;;;;;;;1.30;0.93;;;;;;;11.47;47.90;99372.20;3895812;74;389300;-79
2021/03/18 15:29:43;;;;;;;1.90;1.43;;;;;;;10.54;49.95;99373.86;3895056;74;395204;-79
2021/03/18 15:35:06;;;;;;;1.47;1.10;;;;;;;8.88;57.73;99387.03;3895481;74;390851;-79
2021/03/18 15:40:27;;;;;;;1.40;1.00;;;;;;;7.75;63.21;99390.39;3895190;74;392873;-79
2021/03/18 15:45:50;;;;;;;1.73;1.63;;;;;;;6.09;76.00;99400.28;3894634;74;396046;-79
2021/03/18 15:51:12;;;;;;;1.90;1.57;;;;;;;4.70;88.17;99399.16;3894837;74;393985;-79
2021/03/18 15:56:37;;;;;;;3.27;2.30;;;;;;;4.68;100.00;99391.91;3748621;78;396125;-79
2021/03/18 16:01:58;;;;;;;1.70;1.30;;;;;;;4.84;95.16;99371.69;3895252;74;395020;-79
2021/03/18 16:07:21;;;;;;;0.90;0.63;;;;;;;5.14;87.70;99370.80;3896148;75;383573;-80
2021/03/18 16:12:44;;;;;;;1.13;1.03;;;;;;;5.28;82.26;99348.50;3895364;74;387742;-80
2021/03/18 16:18:07;;;;;;;4.60;2.10;;;;;;;5.71;71.21;99337.52;3895280;74;394061;-79
2021/03/18 16:23:28;;;;;;;2.03;1.13;;;;;;;6.39;68.54;99327.44;3765196;76;393982;-79
2021/03/18 16:28:50;;;;;;;2.70;1.37;;;;;;;6.46;69.56;99329.72;3895415;74;394009;-79
2021/03/18 16:34:11;;;;;;;0.93;0.73;;;;;;;6.33;67.40;99326.77;3766085;77;383794;-79
2021/03/18 16:39:33;;;;;;;1.77;0.87;;;;;;;6.07;67.35;99318.50;3895576;74;391943;-78
2021/03/18 16:44:54;;;;;;;1.00;0.70;;;;;;;5.83;70.42;99319.62;3895999;75;383772;-78
2021/03/18 16:50:15;;;;;;;2.00;1.13;;;;;;;5.40;73.14;99321.88;3895146;74;394309;-79
2021/03/18 16:55:38;;;;;;;1.33;0.87;;;;;;;5.31;73.80;99324.02;3765538;76;390126;-79
2021/03/18 17:01:01;;;;;;;10.73;1.23;;;;;;;4.87;77.43;99319.17;3895440;73;391924;-78
2021/03/18 17:06:22;;;;;;;1.57;0.70;;;;;;;4.96;77.38;99304.21;3895309;74;394002;-78
2021/03/18 17:11:45;;;;;;;1.00;0.80;;;;;;;4.59;79.21;99313.65;3895316;74;391947;-78
2021/03/18 17:17:07;;;;;;;0.97;0.80;;;;;;;4.61;80.78;99301.25;3897188;72;387771;-79
2021/03/18 17:22:30;;;;;;;1.13;1.03;;;;;;;4.71;81.58;99295.26;3895180;74;396042;-78
2021/03/18 17:27:52;;;;;;;1.97;1.70;;;;;;;4.75;80.29;99292.05;3895337;74;391908;-79
2021/03/18 17:33:19;;;;;;;3.40;1.87;;;;;;;4.77;81.25;99288.38;3895009;74;394019;-78
2021/03/18 17:38:41;;;;;;;3.40;2.43;;;;;;;4.82;80.85;99282.08;3895138;75;396378;-78
2021/03/18 17:44:02;;;;;;;2.90;1.10;;;;;;;4.77;81.00;99276.11;3895097;74;394046;-79
2021/03/18 17:49:23;;;;;;;1.27;1.17;;;;;;;4.64;80.59;99272.53;3765403;77;391915;-79
2021/03/18 17:54:44;;;;;;;1.00;0.70;;;;;;;4.59;80.29;99272.78;3895487;74;391904;-79
2021/03/18 18:00:08;;;;;;;11.10;1.67;;;;;;;4.55;80.98;99268.63;3895115;74;393944;-79
2021/03/18 18:05:29;;;;;;;1.20;1.10;;;;;;;4.53;83.15;99282.38;3896002;74;383861;-78
2021/03/18 18:10:50;;;;;;;2.53;0.90;;;;;;;4.34;85.43;99285.05;3895722;75;390022;-78
2021/03/18 18:16:11;;;;;;;1.73;1.27;;;;;;;4.37;87.23;99280.27;3894884;74;396092;-78
2021/03/18 18:21:33;;;;;;;4.40;2.77;;;;;;;4.37;87.45;99280.27;3894912;74;396080;-79
2021/03/18 18:26:55;;;;;;;2.37;1.37;;;;;;;4.34;86.38;99279.05;3764827;78;395071;-79
2021/03/18 18:32:16;;;;;;;4.40;2.10;;;;;;;4.20;89.70;99274.59;3894981;74;396140;-79
2021/03/18 18:37:42;;;;;;;3.87;1.43;;;;;;;4.10;92.06;99267.54;3894980;74;396344;-79
2021/03/18 18:43:04;;;;;;;2.23;1.63;;;;;;;3.99;90.89;99261.07;3894796;74;396125;-79
2021/03/18 18:48:25;;;;;;;1.30;1.20;;;;;;;3.99;88.23;99252.91;3895937;74;387978;-79
2021/03/18 18:53:46;;;;;;;1.27;0.67;;;;;;;4.03;86.38;99250.48;3895941;74;386743;-79
2021/03/18 18:59:09;;;;;;;1.10;1.00;;;;;;;4.05;82.84;99254.98;3765339;77;392016;-79
2021/03/18 19:04:30;;;;;;;2.80;1.90;;;;;;;4.06;81.57;99248.41;3894799;73;396109;-79
2021/03/18 19:09:52;;;;;;;2.30;2.03;;;;;;;4.11;85.32;99250.88;3894886;74;396055;-79
2021/03/18 19:15:13;;;;;;;1.00;0.87;;;;;;;3.93;93.97;99249.66;3895879;74;387866;-79
2021/03/18 19:20:38;;;;;;;1.03;0.87;;;;;;;3.87;99.41;99244.81;3896475;74;383861;-78
2021/03/18 19:25:59;;;;;;;10.40;2.23;;;;;;;3.67;100.00;99249.15;3895644;74;394002;-78
2021/03/18 19:31:21;;;;;;;7.60;1.77;;;;;;;3.47;100.00;99237.95;3894966;74;395017;-78
2021/03/18 19:36:42;;;;;;;6.70;1.70;;;;;;;3.34;100.00;99233.70;3895529;74;385673;-79
2021/03/18 19:42:03;;;;;;;2.43;1.17;;;;;;;3.29;100.00;99232.03;3765067;77;394095;-79
2021/03/18 19:47:24;;;;;;;0.90;0.80;;;;;;;3.21;100.00;99224.05;3764783;78;392151;-78
2021/03/18 19:52:45;;;;;;;1.40;1.20;;;;;;;3.24;100.00;99217.34;3895552;74;394268;-78
2021/03/18 19:58:07;;;;;;;1.83;1.53;;;;;;;3.17;100.00;99216.34;3894895;74;396059;-78
2021/03/18 20:03:29;;;;;;;2.60;1.57;;;;;;;3.00;100.00;99210.44;3895058;74;393955;-79
2021/03/18 20:08:50;;;;;;;0.93;0.80;;;;;;;2.98;100.00;99202.64;3896397;74;383979;-79
2021/03/18 20:14:11;;;;;;;1.63;1.53;;;;;;;2.91;100.00;99204.36;3895556;75;387763;-78
2021/03/18 20:19:33;;;;;;;1.77;0.90;;;;;;;2.99;100.00;99198.77;3748885;77;392920;-78
2021/03/18 20:24:54;;;;;;;0.90;0.70;;;;;;;2.95;100.00;99195.17;3896225;75;383609;-78
2021/03/18 20:30:18;;;;;;;7.10;3.07;;;;;;;2.97;100.00;99194.27;3748411;77;396176;-79
2021/03/18 20:35:40;;;;;;;1.23;0.80;;;;;;;3.07;100.00;99183.45;3895808;74;391853;-79
2021/03/18 20:41:01;;;;;;;1.63;1.50;;;;;;;3.02;100.00;99179.64;3895041;74;395043;-78
2021/03/18 20:46:23;;;;;;;1.93;1.17;;;;;;;2.97;100.00;99182.05;3895559;74;390808;-78
2021/03/18 20:51:44;;;;;;;2.40;1.17;;;;;;;3.03;100.00;99179.29;3748770;77;396382;-78
2021/03/18 20:57:05;;;;;;;17.77;3.17;;;;;;;3.07;100.00;99180.16;3895283;74;396160;-78
2021/03/18 21:02:28;;;;;;;0.90;0.57;;;;;;;2.95;100.00;99182.95;3896200;75;383865;-79
2021/03/18 21:07:49;;;;;;;2.17;1.80;;;;;;;2.91;100.00;99178.55;3894918;74;396082;-78
2021/03/18 21:13:10;;;;;;;2.10;1.53;;;;;;;2.94;100.00;99172.44;3895202;74;396124;-78
2021/03/18 21:18:32;;;;;;;2.70;1.33;;;;;;;2.80;100.00;99163.33;3895023;74;395290;-78
2021/03/18 21:23:53;;;;;;;2.20;1.37;;;;;;;2.80;100.00;99160.61;3895172;74;396396;-79
2021/03/18 21:29:14;;;;;;;1.00;0.90;;;;;;;2.75;100.00;99159.48;3895634;74;392153;-78
2021/03/18 21:34:36;;;;;;;1.93;1.47;;;;;;;2.73;100.00;99167.21;3895232;74;396078;-78
2021/03/18 21:39:57;;;;;;;2.83;2.43;;;;;;;2.80;100.00;99165.23;3895168;74;396126;-78
2021/03/18 21:45:21;;;;;;;1.93;1.60;;;;;;;2.79;100.00;99168.53;3895036;74;396180;-78
2021/03/18 21:50:43;;;;;;;5.20;2.17;;;;;;;2.71;100.00;99168.12;3748435;77;396121;-78
2021/03/18 21:56:05;;;;;;;4.40;2.87;;;;;;;2.95;100.00;99169.37;3894876;74;396110;-77
2021/03/18 22:01:30;;;;;;;2.30;2.10;;;;;;;2.90;100.00;99165.55;3748521;77;396105;-77
2021/03/18 22:06:49;;;;;;;1.20;1.03;;;;;;;2.82;100.00;99169.21;3894474;75;389774;-78
2021/03/18 22:12:10;;;;;;;1.93;1.70;;;;;;;2.89;100.00;99167.23;3773443;77;393991;-77
2021/03/18 22:17:31;;;;;;;8.07;1.67;;;;;;;2.85;100.00;99154.14;3742437;78;395021;-80
2021/03/18 22:22:53;;;;;;;1.47;1.37;;;;;;;2.92;100.00;99152.39;3742227;77;391864;-78
2021/03/18 22:28:14;;;;;;;3.83;2.50;;;;;;;3.03;100.00;99149.98;3741566;78;396367;-78
2021/03/18 22:33:35;;;;;;;4.30;3.80;;;;;;;3.07;100.00;99151.62;3741841;78;396096;-78
2021/03/18 22:38:56;;;;;;;2.13;1.70;;;;;;;2.99;100.00;99149.86;3741921;77;393958;-78
2021/03/18 22:44:17;;;;;;;7.20;3.93;;;;;;;3.08;100.00;99143.70;3742111;78;396082;-79
2021/03/18 22:49:39;;;;;;;6.43;2.83;;;;;;;3.06;100.00;99139.20;3741937;77;395110;-79
2021/03/18 22:55:00;;;;;;;5.07;1.53;;;;;;;3.00;100.00;99137.86;3742468;78;390109;-79
2021/03/18 23:00:23;;;;;;;4.03;2.33;;;;;;;3.03;100.00;99133.09;3742043;77;392960;-78
2021/03/18 23:05:45;;;;;;;2.40;2.10;;;;;;;3.07;100.00;99127.75;3751303;76;396066;-79
2021/03/18 23:11:06;;;;;;;1.77;1.30;;;;;;;3.10;100.00;99126.48;3761091;77;396041;-79
2021/03/18 23:16:28;;;;;;;7.13;1.47;;;;;;;2.92;100.00;99119.78;3755220;78;394021;-79
2021/03/18 23:21:49;;;;;;;3.07;2.97;;;;;;;2.90;100.00;99117.20;3754622;78;390069;-79
2021/03/18 23:27:11;;;;;;;8.03;1.77;;;;;;;2.83;100.00;99111.59;3754854;78;387822;-79
2021/03/18 23:32:32;;;;;;;2.40;1.40;;;;;;;2.71;100.00;99116.52;3754867;77;383814;-80
2021/03/18 23:37:53;;;;;;;1.87;1.70;;;;;;;2.66;100.00;99114.61;3754610;78;396341;-80
2021/03/18 23:43:14;;;;;;;4.00;2.20;;;;;;;2.49;100.00;99112.20;3754133;78;396492;-79
2021/03/18 23:48:35;;;;;;;7.00;3.70;;;;;;;2.05;100.00;99109.19;3754703;78;396121;-80
2021/03/18 23:53:56;;;;;;;1.57;1.47;;;;;;;2.10;100.00;99113.59;3754446;78;393983;-80
2021/03/18 23:59:17;;;;;;;3.00;2.60;;;;;;;1.99;100.00;99110.53;3754924;78;396033;-81
